Time;durP1;ratioP1;P1;durP2;ratioP2;P2;SDS_P1;SDS_P2;PMS_P1;PMS_P2;Temp;Humidity;BMP_temperature;BMP_pressure;BME280_temperature;BME280_humidity;BME280_pressure;Samples;Min_cycle;Max_cycle;Signal;HPM_P1;HPM_P2
2021/07/18 00:01:47;;;;;;;6.30;3.03;;;;;;;30.05;32.60;101774.78;4410987;32;20042;-90
2021/07/18 00:04:13;;;;;;;6.00;3.08;;;;;;;30.01;32.47;101771.41;4412887;32;20532;-91
2021/07/18 00:06:39;;;;;;;6.65;3.65;;;;;;;29.99;32.32;101771.16;4409938;32;20077;-90
2021/07/18 00:09:06;;;;;;;6.82;4.07;;;;;;;29.98;34.37;101764.59;4412965;32;20090;-91
2021/07/18 00:11:32;;;;;;;8.15;4.05;;;;;;;29.83;35.16;101767.19;4414998;32;20438;-91
2021/07/18 00:13:59;;;;;;;10.20;4.07;;;;;;;29.74;35.47;101766.78;4409462;32;20046;-91
2021/07/18 00:16:24;;;;;;;11.55;4.37;;;;;;;29.57;35.57;101769.88;4413459;32;20367;-91
2021/07/18 00:18:50;;;;;;;10.40;3.85;;;;;;;29.44;36.08;101761.09;4410013;32;20034;-91
2021/07/18 00:21:16;;;;;;;6.72;3.60;;;;;;;29.13;36.67;101760.94;4412077;32;20094;-92
2021/07/18 00:23:41;;;;;;;5.50;3.67;;;;;;;29.02;36.88;101758.91;4409805;32;20082;-91
2021/07/18 00:26:07;;;;;;;8.85;4.25;;;;;;;28.77;37.42;101761.03;4414899;32;20095;-92
2021/07/18 00:28:33;;;;;;;10.82;5.07;;;;;;;28.85;37.46;101752.53;4417092;32;20030;-92
2021/07/18 00:30:59;;;;;;;10.77;5.05;;;;;;;28.78;37.49;101753.13;4425694;32;20034;-91
2021/07/18 00:33:25;;;;;;;9.13;4.57;;;;;;;28.44;38.05;101755.50;4413085;32;20424;-91
2021/07/18 00:35:51;;;;;;;10.85;4.45;;;;;;;28.72;37.54;101761.84;4412932;32;20053;-90
2021/07/18 00:38:18;;;;;;;7.68;4.62;;;;;;;28.41;38.10;101758.72;4414131;32;20025;-92
2021/07/18 00:40:44;;;;;;;8.05;4.37;;;;;;;28.40;38.00;101751.34;4414541;32;20034;-91
2021/07/18 00:43:10;;;;;;;8.07;4.15;;;;;;;28.44;38.13;101761.31;4416075;32;20363;-90
2021/07/18 00:45:36;;;;;;;7.35;4.25;;;;;;;28.32;38.44;101754.03;4411535;32;20038;-89
2021/07/18 00:48:02;;;;;;;10.77;4.55;;;;;;;28.30;38.44;101756.69;4408569;32;20060;-90
2021/07/18 00:50:28;;;;;;;9.82;4.70;;;;;;;28.41;38.28;101753.69;4412604;32;20587;-92
2021/07/18 00:52:54;;;;;;;6.82;3.92;;;;;;;28.27;38.56;101751.97;4409311;32;20477;-91
2021/07/18 00:55:20;;;;;;;11.85;4.70;;;;;;;28.17;38.54;101753.66;4415966;32;20125;-90
2021/07/18 00:57:48;;;;;;;9.60;4.62;;;;;;;28.15;38.88;101761.28;4407498;32;20037;-93
2021/07/18 01:00:16;;;;;;;6.25;4.30;;;;;;;28.16;38.85;101759.97;4418606;32;20449;-90
2021/07/18 01:02:43;;;;;;;7.75;4.32;;;;;;;28.09;39.06;101754.75;4413954;32;20058;-91
2021/07/18 01:05:11;;;;;;;8.98;4.90;;;;;;;27.96;39.22;101760.34;4416096;32;20046;-92
2021/07/18 01:07:37;;;;;;;6.65;4.10;;;;;;;28.02;39.06;101761.91;4415790;32;20389;-91
2021/07/18 01:10:05;;;;;;;7.07;3.90;;;;;;;27.99;39.00;101754.28;4406846;32;20499;-92
2021/07/18 01:12:32;;;;;;;6.45;4.45;;;;;;;28.07;38.95;101755.28;4411618;32;20361;-90
2021/07/18 01:14:58;;;;;;;5.93;4.07;;;;;;;27.95;39.33;101759.56;4412350;32;20046;-90
2021/07/18 01:17:25;;;;;;;9.18;4.28;;;;;;;27.76;39.47;101752.03;4406723;32;20470;-90
2021/07/18 01:19:51;;;;;;;6.18;4.00;;;;;;;27.78;39.52;101758.06;4408829;32;20142;-91
2021/07/18 01:22:17;;;;;;;6.68;3.78;;;;;;;27.73;39.32;101751.00;4416160;32;20041;-90
2021/07/18 01:24:43;;;;;;;6.80;4.35;;;;;;;27.68;39.74;101753.91;4411940;32;20057;-90
2021/07/18 01:27:09;;;;;;;5.72;3.55;;;;;;;27.64;39.67;101753.44;4414474;32;20410;-91
2021/07/18 01:29:35;;;;;;;6.10;3.67;;;;;;;27.53;39.86;101744.78;4410626;32;20116;-90
2021/07/18 01:32:02;;;;;;;5.95;4.10;;;;;;;27.56;39.73;101744.53;4411980;32;20864;-91
2021/07/18 01:34:29;;;;;;;9.27;4.15;;;;;;;27.47;39.73;101741.94;4417547;32;20064;-92
2021/07/18 01:36:55;;;;;;;6.43;3.78;;;;;;;27.43;39.74;101744.34;4411136;32;20042;-91
2021/07/18 01:39:22;;;;;;;7.53;4.10;;;;;;;27.33;39.96;101737.25;4410960;32;20023;-90
2021/07/18 01:41:50;;;;;;;8.05;4.12;;;;;;;27.39;40.22;101743.03;4418151;32;20034;-91
2021/07/18 01:44:16;;;;;;;8.23;4.28;;;;;;;27.30;40.51;101740.44;4415480;32;20030;-90
2021/07/18 01:46:42;;;;;;;8.48;4.62;;;;;;;27.31;40.41;101737.03;4411206;32;20105;-91
2021/07/18 01:49:11;;;;;;;9.52;4.30;;;;;;;27.27;40.74;101735.72;4417871;32;20092;-93
2021/07/18 01:51:38;;;;;;;10.05;4.72;;;;;;;27.28;40.78;101740.19;4410257;32;20039;-90
2021/07/18 01:54:06;;;;;;;9.15;4.40;;;;;;;27.49;40.28;101732.72;4412762;32;20038;-92
2021/07/18 01:56:33;;;;;;;8.70;4.90;;;;;;;27.43;40.46;101738.53;4428218;32;20089;-90
2021/07/18 01:58:59;;;;;;;6.75;4.53;;;;;;;27.16;40.90;101745.97;4424260;32;20050;-90
2021/07/18 02:01:28;;;;;;;8.32;4.40;;;;;;;27.21;40.57;101745.16;4409363;32;20536;-90
2021/07/18 02:03:55;;;;;;;8.57;5.18;;;;;;;27.35;40.48;101740.41;4407307;32;20450;-90
2021/07/18 02:06:23;;;;;;;6.82;4.22;;;;;;;27.32;40.50;101738.59;4412487;32;20034;-91
2021/07/18 02:08:49;;;;;;;6.47;4.00;;;;;;;27.18;40.67;101737.56;4417086;32;20025;-90
2021/07/18 02:11:16;;;;;;;11.10;4.78;;;;;;;27.22;40.35;101723.59;4411099;32;20038;-91
2021/07/18 02:13:47;;;;;;;7.50;5.32;;;;;;;27.08;40.75;101726.81;4412275;32;20138;-90
2021/07/18 02:16:13;;;;;;;7.43;4.97;;;;;;;26.84;41.03;101736.06;4412276;32;20093;-91
2021/07/18 02:18:39;;;;;;;10.63;5.30;;;;;;;26.72;41.30;101731.63;4415031;32;20041;-90
2021/07/18 02:21:05;;;;;;;7.90;4.55;;;;;;;26.62;41.87;101730.34;4410860;32;20187;-91
2021/07/18 02:23:31;;;;;;;8.02;4.43;;;;;;;26.64;41.79;101724.84;4410790;32;20410;-91
2021/07/18 02:25:57;;;;;;;7.12;4.70;;;;;;;26.54;42.01;101719.81;4410090;32;20029;-92
2021/07/18 02:28:23;;;;;;;8.20;4.78;;;;;;;26.40;42.33;101715.09;4413578;32;20128;-91
2021/07/18 02:30:48;;;;;;;6.68;4.78;;;;;;;26.53;42.02;101716.16;4415526;32;20095;-91
2021/07/18 02:33:14;;;;;;;5.22;4.25;;;;;;;26.64;41.81;101718.25;4407152;32;20421;-90
2021/07/18 02:35:40;;;;;;;8.35;4.43;;;;;;;26.70;41.60;101716.94;4405223;32;20073;-90
2021/07/18 02:38:06;;;;;;;7.47;4.40;;;;;;;26.51;41.97;101723.78;4409788;32;20094;-90
2021/07/18 02:40:32;;;;;;;4.95;3.92;;;;;;;26.54;41.83;101714.81;4413976;32;20101;-90
2021/07/18 02:42:57;;;;;;;6.85;4.45;;;;;;;26.69;41.47;101711.72;4412934;32;20018;-89
2021/07/18 02:45:24;;;;;;;7.78;4.68;;;;;;;26.62;41.69;101709.34;4410221;32;20061;-90
2021/07/18 02:47:50;;;;;;;8.93;4.20;;;;;;;26.65;41.71;101719.81;4412349;32;20455;-90
2021/07/18 02:50:19;;;;;;;6.45;4.55;;;;;;;26.65;41.52;101714.06;4407962;32;20422;-91
2021/07/18 02:52:45;;;;;;;9.55;4.20;;;;;;;26.63;41.63;101708.03;4409702;32;20415;-90
2021/07/18 02:55:13;;;;;;;5.75;3.80;;;;;;;26.66;41.54;101721.41;4410512;32;20073;-92
2021/07/18 02:57:39;;;;;;;8.15;4.32;;;;;;;26.62;41.70;101712.22;4408959;32;20092;-91
2021/07/18 03:02:44;;;;;;;6.80;4.60;;;;;;;27.04;41.19;101709.78;3962679;32;15183682;-75
2021/07/18 03:05:10;;;;;;;8.65;4.70;;;;;;;27.04;41.19;101709.78;4429806;32;20041;-75
2021/07/18 03:07:37;;;;;;;10.02;4.90;;;;;;;26.61;41.75;101713.50;4430377;32;20483;-75
2021/07/18 03:10:05;;;;;;;6.30;4.57;;;;;;;26.48;42.07;101711.16;4434630;32;20034;-75
2021/07/18 03:12:31;;;;;;;8.00;4.25;;;;;;;26.65;41.68;101714.06;4431387;32;20073;-75
2021/07/18 03:15:00;;;;;;;8.88;4.65;;;;;;;26.40;42.01;101715.91;4429237;32;20129;-75
2021/07/18 03:17:26;;;;;;;7.40;4.20;;;;;;;26.53;41.95;101715.34;4424820;32;20018;-75
2021/07/18 03:19:52;;;;;;;10.00;5.12;;;;;;;26.27;42.36;101709.88;4431166;32;20096;-75
2021/07/18 03:22:19;;;;;;;10.77;5.15;;;;;;;26.25;42.38;101712.50;4427736;32;20070;-75
2021/07/18 03:24:45;;;;;;;7.72;4.32;;;;;;;26.44;42.14;101709.84;4428784;32;20034;-75
2021/07/18 03:27:11;;;;;;;7.43;4.57;;;;;;;26.20;42.62;101700.97;4435262;32;20140;-75
2021/07/18 03:29:37;;;;;;;7.85;4.80;;;;;;;26.40;42.20;101703.56;4431788;32;20057;-74
2021/07/18 03:32:03;;;;;;;8.32;4.30;;;;;;;26.19;42.76;101708.81;4433584;32;20385;-74
2021/07/18 03:34:29;;;;;;;8.20;4.80;;;;;;;26.27;42.62;101703.31;4431697;32;20049;-74
2021/07/18 03:36:55;;;;;;;7.03;4.85;;;;;;;26.17;42.72;101710.66;4430048;32;20026;-74
2021/07/18 03:39:20;;;;;;;6.82;4.75;;;;;;;26.20;42.72;101709.62;4430191;32;20094;-74
2021/07/18 03:41:46;;;;;;;8.43;5.20;;;;;;;26.14;42.82;101703.81;4431730;32;20077;-74
2021/07/18 03:44:13;;;;;;;7.15;4.57;;;;;;;26.05;43.18;101704.06;4430506;32;20345;-74
2021/07/18 03:46:38;;;;;;;6.53;4.90;;;;;;;25.95;43.39;101707.75;4426823;32;20069;-75
2021/07/18 03:49:04;;;;;;;6.80;4.72;;;;;;;25.92;43.40;101706.66;4430649;32;20037;-74
2021/07/18 03:51:30;;;;;;;6.78;4.57;;;;;;;26.01;43.44;101705.69;4428640;32;21164;-75
2021/07/18 03:53:56;;;;;;;6.50;4.87;;;;;;;25.95;43.57;101714.28;4428223;32;20052;-74
2021/07/18 03:56:24;;;;;;;7.05;4.70;;;;;;;25.72;44.08;101712.69;4431348;32;20510;-74
2021/07/18 03:58:51;;;;;;;5.90;4.60;;;;;;;25.65;44.41;101703.75;4430740;32;20077;-74
2021/07/18 04:01:17;;;;;;;7.90;4.60;;;;;;;25.86;44.04;101711.63;4430548;32;20066;-74
2021/07/18 04:03:46;;;;;;;10.25;4.53;;;;;;;25.74;44.20;101712.94;4425392;32;20072;-74
2021/07/18 04:06:13;;;;;;;8.30;4.68;;;;;;;25.75;44.19;101720.28;4429487;32;20030;-74
2021/07/18 04:08:39;;;;;;;11.63;5.20;;;;;;;25.79;44.32;101720.00;4430922;32;20402;-74
2021/07/18 04:11:04;;;;;;;8.63;4.95;;;;;;;25.74;44.24;101709.28;4430527;32;20091;-74
2021/07/18 04:13:30;;;;;;;8.43;4.30;;;;;;;25.79;44.03;101714.25;4421608;32;20776;-73
2021/07/18 04:15:56;;;;;;;9.75;4.70;;;;;;;25.73;44.20;101717.13;4419196;32;20108;-74
2021/07/18 04:18:21;;;;;;;11.27;4.90;;;;;;;25.77;44.07;101714.00;4417404;32;20030;-74
2021/07/18 04:20:47;;;;;;;8.50;4.90;;;;;;;25.69;44.25;101712.91;4420596;32;20089;-74
2021/07/18 04:23:14;;;;;;;7.75;4.22;;;;;;;25.81;43.96;101720.28;4418904;32;20115;-74
2021/07/18 04:25:39;;;;;;;7.10;4.60;;;;;;;25.68;44.13;101705.59;4419432;32;20066;-74
2021/07/18 04:28:05;;;;;;;10.75;4.60;;;;;;;25.60;44.38;101711.06;4418760;32;20049;-74
2021/07/18 04:30:31;;;;;;;8.40;5.20;;;;;;;25.69;44.22;101718.69;4416733;32;20038;-74
2021/07/18 04:32:57;;;;;;;7.65;4.75;;;;;;;25.62;44.35;101720.00;4418431;32;20084;-74
2021/07/18 04:35:23;;;;;;;10.45;4.93;;;;;;;25.51;44.47;101714.19;4423667;32;20063;-74
2021/07/18 04:37:48;;;;;;;7.50;4.93;;;;;;;25.51;44.53;101717.06;4420328;32;20052;-74
2021/07/18 04:40:15;;;;;;;10.88;5.55;;;;;;;25.62;44.39;101711.34;4418868;32;20046;-74
2021/07/18 04:42:40;;;;;;;8.63;4.30;;;;;;;25.65;44.30;101709.50;4422660;32;20041;-74
2021/07/18 04:45:07;;;;;;;8.35;4.85;;;;;;;25.71;44.22;101710.31;4415952;32;20083;-74
2021/07/18 04:47:43;;;;;;;8.98;4.82;;;;;;;25.93;43.85;101710.34;4417608;32;20118;-74
2021/07/18 04:50:09;;;;;;;;;;;;;;;26.17;43.45;101717.19;4416569;32;20027;-74
2021/07/18 04:52:35;;;;;;;8.68;4.45;;;;;;;26.18;43.32;101715.91;4416951;32;19989;-74
2021/07/18 04:55:01;;;;;;;6.97;4.80;;;;;;;25.83;43.91;101721.34;4419699;32;20037;-74
2021/07/18 04:57:26;;;;;;;7.22;4.65;;;;;;;25.74;44.20;101720.81;4416793;32;20383;-73
2021/07/18 04:59:52;;;;;;;8.93;4.60;;;;;;;25.68;44.36;101712.13;4419049;32;20434;-74
2021/07/18 05:02:18;;;;;;;7.07;4.47;;;;;;;25.58;44.61;101712.91;4420974;32;20041;-74
2021/07/18 05:04:43;;;;;;;8.88;4.72;;;;;;;25.71;44.35;101716.09;4420433;32;20033;-74
2021/07/18 05:07:10;;;;;;;7.62;4.62;;;;;;;25.76;44.28;101718.97;4420353;32;20037;-74
2021/07/18 05:09:35;;;;;;;8.77;4.70;;;;;;;25.85;44.17;101726.56;4417878;32;20310;-74
2021/07/18 05:12:03;;;;;;;8.98;4.40;;;;;;;25.96;43.81;101715.88;4420912;32;20399;-74
2021/07/18 05:14:28;;;;;;;11.27;4.47;;;;;;;26.07;43.71;101724.56;4420770;32;20121;-74
2021/07/18 05:16:57;;;;;;;5.30;3.97;;;;;;;26.11;43.68;101718.53;4414134;32;20070;-75
2021/07/18 05:19:22;;;;;;;9.25;4.47;;;;;;;26.26;43.39;101711.16;4418479;32;20064;-74
2021/07/18 05:21:48;;;;;;;8.02;4.62;;;;;;;26.36;43.23;101705.94;4419676;32;20421;-74
2021/07/18 05:24:14;;;;;;;7.20;4.80;;;;;;;26.50;42.95;101716.41;4420126;32;20113;-74
2021/07/18 05:26:40;;;;;;;7.78;4.87;;;;;;;26.54;42.97;101708.28;4419039;32;20440;-74
2021/07/18 05:29:05;;;;;;;6.93;4.37;;;;;;;26.68;42.74;101713.78;4420460;32;20112;-74
2021/07/18 05:31:31;;;;;;;7.65;4.50;;;;;;;26.77;42.62;101707.75;4419744;32;20132;-74
2021/07/18 05:33:57;;;;;;;9.55;4.62;;;;;;;26.73;42.77;101709.31;4419700;32;20067;-74
2021/07/18 05:36:24;;;;;;;6.87;4.45;;;;;;;26.81;42.65;101698.78;4418163;32;20624;-74
2021/07/18 05:38:49;;;;;;;12.60;4.37;;;;;;;26.99;42.16;101704.78;4419659;32;20038;-74
2021/07/18 05:41:15;;;;;;;5.93;3.92;;;;;;;27.01;41.98;101702.16;4420353;32;20472;-74
2021/07/18 05:43:40;;;;;;;8.93;4.15;;;;;;;27.13;41.85;101709.44;4418884;32;20037;-74
2021/07/18 05:46:06;;;;;;;7.25;4.53;;;;;;;27.26;41.61;101708.13;4419920;32;20251;-75
2021/07/18 05:48:33;;;;;;;6.60;4.05;;;;;;;27.25;41.83;101709.44;4418152;32;20030;-74
2021/07/18 05:50:59;;;;;;;5.57;4.07;;;;;;;27.27;41.92;101713.38;4418605;32;20077;-74
2021/07/18 05:53:24;;;;;;;8.60;4.40;;;;;;;27.49;41.50;101724.84;4417220;32;20418;-74
2021/07/18 05:55:50;;;;;;;8.68;4.40;;;;;;;27.54;41.45;101721.13;4417623;32;20534;-74
2021/07/18 05:58:16;;;;;;;5.45;3.83;;;;;;;27.79;41.04;101722.81;4417999;32;20093;-74
2021/07/18 06:00:42;;;;;;;5.12;3.95;;;;;;;27.88;40.83;101719.62;4420955;32;20072;-75
2021/07/18 06:03:08;;;;;;;8.05;4.32;;;;;;;28.10;40.49;101727.38;4418270;32;20070;-74
2021/07/18 06:05:35;;;;;;;5.55;4.05;;;;;;;28.13;40.38;101726.31;4418846;32;20030;-74
2021/07/18 06:08:03;;;;;;;6.90;4.68;;;;;;;28.26;40.41;101720.66;4417814;32;20030;-74
2021/07/18 06:10:29;;;;;;;7.65;4.22;;;;;;;28.55;39.99;101719.91;4415256;32;20100;-75
2021/07/18 06:12:55;;;;;;;7.60;4.57;;;;;;;28.47;40.10;101734.19;4420195;32;20408;-74
2021/07/18 06:15:20;;;;;;;7.68;4.28;;;;;;;28.68;39.79;101726.62;4419410;32;20039;-74
2021/07/18 06:17:46;;;;;;;5.45;3.90;;;;;;;28.80;39.63;101733.06;4414862;32;20066;-74
2021/07/18 06:20:13;;;;;;;9.32;4.40;;;;;;;29.04;39.39;101736.00;4417551;32;20038;-75
2021/07/18 06:22:40;;;;;;;6.75;4.30;;;;;;;29.06;39.48;101729.66;4419498;32;20102;-74
2021/07/18 06:25:09;;;;;;;5.78;4.20;;;;;;;29.16;39.20;101730.84;4418976;32;20103;-74
2021/07/18 06:27:38;;;;;;;8.95;4.28;;;;;;;29.34;38.82;101730.91;4419593;32;20069;-74
2021/07/18 06:30:04;;;;;;;5.32;3.92;;;;;;;29.37;39.02;101735.63;4417948;32;20030;-74
2021/07/18 06:32:30;;;;;;;8.52;4.25;;;;;;;29.51;38.84;101730.69;4416191;32;20061;-74
2021/07/18 06:34:55;;;;;;;8.50;4.50;;;;;;;29.56;38.84;101730.59;4416603;32;20077;-76
2021/07/18 06:37:22;;;;;;;6.97;4.72;;;;;;;29.82;38.45;101727.09;4415324;32;20448;-76
2021/07/18 06:39:48;;;;;;;6.43;4.72;;;;;;;29.97;38.36;101730.31;4413856;32;20204;-73
2021/07/18 06:42:14;;;;;;;4.62;3.97;;;;;;;30.11;38.23;101740.62;4417108;32;20029;-75
2021/07/18 06:44:39;;;;;;;5.57;4.60;;;;;;;30.23;38.12;101733.34;4418607;32;20038;-75
2021/07/18 06:47:06;;;;;;;7.82;4.72;;;;;;;30.51;37.86;101733.66;4415694;32;20144;-75
2021/07/18 06:49:32;;;;;;;6.68;4.75;;;;;;;30.77;37.45;101731.59;4418565;32;20296;-75
2021/07/18 06:51:58;;;;;;;7.68;4.53;;;;;;;30.83;37.50;101730.72;4419606;32;20136;-75
2021/07/18 06:54:24;;;;;;;6.03;4.40;;;;;;;30.87;37.79;101740.69;4417870;32;20137;-75
2021/07/18 06:56:49;;;;;;;7.07;5.15;;;;;;;31.18;37.33;101739.81;4415852;32;20080;-75
2021/07/18 06:59:16;;;;;;;5.25;4.12;;;;;;;31.36;37.13;101738.13;4421091;32;20052;-74
2021/07/18 07:01:42;;;;;;;12.23;4.80;;;;;;;31.56;36.95;101749.06;4418339;32;20511;-73
2021/07/18 07:04:08;;;;;;;9.70;4.57;;;;;;;31.54;36.96;101749.63;4414637;32;20034;-75
2021/07/18 07:06:33;;;;;;;8.60;4.65;;;;;;;31.75;36.66;101750.47;4415624;32;20088;-73
2021/07/18 07:08:59;;;;;;;7.15;4.25;;;;;;;31.89;36.37;101757.88;4419639;32;20037;-74
2021/07/18 07:11:25;;;;;;;7.72;4.07;;;;;;;32.02;35.90;101754.91;4418418;32;20096;-74
2021/07/18 07:13:50;;;;;;;8.48;4.30;;;;;;;32.22;35.48;101760.00;4416216;32;20049;-75
2021/07/18 07:16:17;;;;;;;5.12;4.05;;;;;;;32.37;34.71;101759.41;4419638;32;20083;-74
2021/07/18 07:18:43;;;;;;;7.12;4.90;;;;;;;32.61;34.57;101759.81;4418631;32;20030;-74
2021/07/18 07:21:09;;;;;;;5.25;4.30;;;;;;;32.65;35.04;101762.37;4417450;32;20096;-74
2021/07/18 07:23:37;;;;;;;8.65;5.07;;;;;;;32.80;34.32;101753.75;4416024;32;20093;-73
2021/07/18 07:26:04;;;;;;;8.93;4.15;;;;;;;33.06;33.79;101758.63;4417297;32;20090;-75
2021/07/18 07:28:30;;;;;;;7.25;4.40;;;;;;;33.19;33.41;101761.47;4418073;32;20034;-75
2021/07/18 07:30:58;;;;;;;5.70;4.22;;;;;;;33.43;32.95;101755.97;4416115;32;20034;-76
2021/07/18 07:33:23;;;;;;;8.50;4.70;;;;;;;33.36;32.48;101747.94;4414351;32;20022;-76
2021/07/18 07:35:51;;;;;;;4.75;3.67;;;;;;;33.40;31.96;101753.41;4414863;32;20165;-74
2021/07/18 07:38:17;;;;;;;7.43;3.78;;;;;;;33.51;31.79;101758.94;4418307;32;20077;-74
2021/07/18 07:40:43;;;;;;;8.30;4.40;;;;;;;33.83;31.17;101760.06;4417902;32;20038;-74
2021/07/18 07:43:09;;;;;;;5.20;3.97;;;;;;;33.71;31.29;101758.84;4418705;32;20418;-74
2021/07/18 07:45:35;;;;;;;11.10;4.22;;;;;;;33.79;30.86;101753.03;4415668;32;20038;-74
2021/07/18 07:48:02;;;;;;;6.07;3.60;;;;;;;33.97;30.90;101754.88;4415560;32;20018;-75
2021/07/18 07:50:28;;;;;;;5.43;3.92;;;;;;;34.10;30.64;101752.59;4419286;32;20086;-74
2021/07/18 07:52:54;;;;;;;6.18;3.70;;;;;;;34.21;30.62;101749.28;4417439;32;20100;-73
2021/07/18 07:55:20;;;;;;;10.32;3.83;;;;;;;34.17;30.62;101748.09;4420118;32;20100;-74
2021/07/18 07:57:46;;;;;;;6.62;3.78;;;;;;;34.35;30.42;101756.53;4419471;32;20026;-75
2021/07/18 08:00:15;;;;;;;5.78;3.97;;;;;;;34.60;30.09;101750.91;4413798;32;20104;-74
2021/07/18 08:02:41;;;;;;;5.05;3.72;;;;;;;34.71;29.91;101746.81;4420240;32;20088;-74
2021/07/18 08:05:09;;;;;;;6.25;4.10;;;;;;;34.74;29.89;101749.34;4417251;32;20081;-74
2021/07/18 08:07:35;;;;;;;6.85;3.67;;;;;;;34.89;29.86;101754.44;4418949;32;20052;-74
2021/07/18 08:10:02;;;;;;;5.65;3.53;;;;;;;35.09;29.48;101750.53;4419868;32;20088;-75
2021/07/18 08:12:27;;;;;;;5.57;3.83;;;;;;;34.98;29.50;101742.94;4418991;32;20405;-75
2021/07/18 08:14:54;;;;;;;7.07;3.67;;;;;;;35.10;29.52;101749.16;4420014;32;20461;-74
2021/07/18 08:17:20;;;;;;;8.90;4.18;;;;;;;35.05;29.50;101750.91;4422443;32;20018;-74
2021/07/18 08:19:46;;;;;;;7.87;3.97;;;;;;;35.15;29.43;101751.09;4419793;32;20220;-74
2021/07/18 08:22:12;;;;;;;6.32;4.03;;;;;;;35.39;29.10;101748.31;4420706;32;20116;-75
2021/07/18 08:24:38;;;;;;;6.80;3.53;;;;;;;35.57;28.96;101744.16;4418893;32;20099;-74
2021/07/18 08:27:04;;;;;;;8.65;3.92;;;;;;;35.69;28.80;101738.66;4418966;32;20167;-76
2021/07/18 08:29:30;;;;;;;9.27;4.07;;;;;;;35.62;28.82;101742.41;4421445;32;20046;-75
2021/07/18 08:31:58;;;;;;;8.55;4.18;;;;;;;35.55;28.93;101735.19;4422097;32;20048;-76
2021/07/18 08:34:27;;;;;;;8.45;3.95;;;;;;;35.70;28.79;101740.19;4414622;32;20073;-76
2021/07/18 08:36:53;;;;;;;6.72;3.65;;;;;;;36.00;28.33;101732.06;4421641;32;20079;-75
2021/07/18 08:39:19;;;;;;;9.18;3.83;;;;;;;36.00;28.41;101731.28;4419294;32;20065;-75
2021/07/18 08:41:45;;;;;;;10.07;4.10;;;;;;;35.98;28.41;101737.75;4423486;32;20456;-75
2021/07/18 08:44:14;;;;;;;7.62;3.65;;;;;;;36.01;28.34;101739.47;4419806;32;20073;-75
2021/07/18 08:46:40;;;;;;;9.75;3.50;;;;;;;35.94;28.25;101733.66;4418843;32;20436;-75
2021/07/18 08:49:07;;;;;;;6.32;3.62;;;;;;;36.00;28.10;101729.13;4411857;32;20489;-76
2021/07/18 08:51:34;;;;;;;8.10;3.45;;;;;;;36.20;27.95;101733.88;4416593;32;20049;-75
2021/07/18 08:54:00;;;;;;;8.13;3.87;;;;;;;36.46;27.75;101732.56;4418284;32;20473;-75
2021/07/18 08:56:29;;;;;;;7.75;3.85;;;;;;;36.47;27.69;101736.28;4421913;32;20524;-76
2021/07/18 08:58:55;;;;;;;6.28;3.45;;;;;;;36.49;27.60;101728.44;4419990;32;20022;-75
2021/07/18 09:01:20;;;;;;;10.38;3.65;;;;;;;36.89;27.03;101732.00;4419739;32;20108;-76
2021/07/18 09:03:47;;;;;;;6.28;3.30;;;;;;;37.20;26.45;101724.47;4416472;32;20477;-76
2021/07/18 09:06:13;;;;;;;8.13;3.80;;;;;;;37.58;26.15;101724.03;4417419;32;20042;-75
2021/07/18 09:08:42;;;;;;;6.70;3.62;;;;;;;37.68;26.07;101724.91;4418607;32;20073;-77
2021/07/18 09:11:17;;;;;;;5.28;3.37;;;;;;;37.88;25.76;101723.62;4418517;32;20034;-75
2021/07/18 09:13:54;;;;;;;7.68;3.90;;;;;;;38.14;25.38;101727.97;4420758;32;20040;-76
2021/07/18 09:16:26;;;;;;;9.50;3.87;;;;;;;38.17;25.36;101732.66;4419131;32;20030;-76
2021/07/18 09:18:53;;;;;;;7.53;3.70;;;;;;;38.55;24.89;101718.91;4418531;32;20089;-76
2021/07/18 09:21:19;;;;;;;7.82;3.50;;;;;;;38.49;24.70;101720.56;4419487;32;20099;-76
2021/07/18 09:23:44;;;;;;;6.07;3.28;;;;;;;38.68;24.67;101721.41;4417048;32;20068;-75
2021/07/18 09:26:26;;;;;;;6.80;3.53;;;;;;;39.00;24.34;101714.41;4417425;32;20030;-75
2021/07/18 09:28:53;;;;;;;4.43;3.45;;;;;;;39.66;23.49;101710.69;4421549;32;20037;-73
2021/07/18 09:31:28;;;;;;;5.03;3.20;;;;;;;39.58;23.62;101707.16;4414719;32;20042;-74
2021/07/18 09:34:16;;;;;;;7.15;3.45;;;;;;;40.23;23.14;101712.75;4414421;32;20093;-75
2021/07/18 09:36:42;;;;;;;7.62;3.55;;;;;;;39.86;23.30;101712.25;4411677;32;20501;-75
2021/07/18 09:39:11;;;;;;;6.68;3.22;;;;;;;39.46;23.88;101706.25;4417041;32;20060;-75
2021/07/18 09:41:37;;;;;;;5.53;3.28;;;;;;;39.54;23.70;101710.56;4418014;32;20041;-76
2021/07/18 09:44:04;;;;;;;8.70;3.47;;;;;;;39.48;23.75;101701.25;4425211;32;21379;-75
2021/07/18 09:46:32;;;;;;;8.73;3.42;;;;;;;39.66;23.78;101704.81;4419524;32;20098;-75
2021/07/18 09:49:00;;;;;;;9.70;4.12;;;;;;;39.66;23.64;101699.69;4419517;32;20025;-75
2021/07/18 09:51:26;;;;;;;5.97;3.40;;;;;;;39.37;24.04;101698.94;4415090;32;20094;-76
2021/07/18 09:54:09;;;;;;;5.55;3.03;;;;;;;39.95;23.22;101695.94;4418544;32;20074;-75
2021/07/18 09:56:35;;;;;;;7.87;3.60;;;;;;;40.31;22.88;101692.72;4415270;32;20094;-75
2021/07/18 09:59:01;;;;;;;8.35;4.18;;;;;;;40.35;23.01;101704.81;4422159;32;20045;-76
2021/07/18 10:01:26;;;;;;;8.77;3.47;;;;;;;40.11;22.98;101697.91;4416860;32;20476;-75
2021/07/18 10:03:54;;;;;;;6.32;3.03;;;;;;;40.43;22.43;101700.28;4416062;32;20495;-75
2021/07/18 10:06:24;;;;;;;6.00;3.37;;;;;;;40.80;22.07;101697.78;4417490;32;20042;-75
2021/07/18 10:08:52;;;;;;;6.37;3.37;;;;;;;40.73;22.43;101695.78;4419066;32;20410;-75
2021/07/18 10:11:20;;;;;;;6.93;3.78;;;;;;;40.78;22.39;101694.66;4417350;32;20619;-75
2021/07/18 10:13:48;;;;;;;6.18;3.47;;;;;;;41.15;22.12;101698.78;4418457;32;20038;-75
2021/07/18 10:16:16;;;;;;;10.70;3.62;;;;;;;41.38;21.69;101693.00;4422378;32;20034;-76
2021/07/18 10:18:46;;;;;;;7.43;3.92;;;;;;;41.30;21.81;101695.41;4415747;32;20038;-75
2021/07/18 10:21:18;;;;;;;6.75;3.70;;;;;;;41.72;21.37;101695.34;4418148;32;20085;-75
2021/07/18 10:23:46;;;;;;;9.35;3.90;;;;;;;41.58;21.24;101694.37;4418024;32;20068;-75
2021/07/18 10:26:13;;;;;;;9.50;3.72;;;;;;;41.38;21.44;101693.75;4417045;32;20070;-75
2021/07/18 10:28:40;;;;;;;13.48;4.00;;;;;;;40.94;21.82;101690.69;4416553;32;20021;-75
2021/07/18 10:31:11;;;;;;;7.12;3.60;;;;;;;41.25;21.38;101696.50;4416904;32;20077;-75
2021/07/18 10:33:37;;;;;;;8.20;3.62;;;;;;;41.65;20.73;101689.66;4416308;32;20427;-76
2021/07/18 10:36:04;;;;;;;9.18;3.80;;;;;;;41.93;20.45;101688.59;4418045;32;20788;-75
2021/07/18 10:38:34;;;;;;;9.60;3.62;;;;;;;41.79;20.64;101690.59;4416777;32;20107;-75
2021/07/18 10:41:00;;;;;;;7.75;3.80;;;;;;;41.40;21.10;101676.16;4414036;32;20081;-75
2021/07/18 10:43:36;;;;;;;9.80;3.78;;;;;;;41.03;21.46;101677.25;4416662;32;20083;-76
2021/07/18 10:46:05;;;;;;;11.50;4.12;;;;;;;41.69;20.85;101681.81;4417649;32;20103;-75
2021/07/18 10:48:49;;;;;;;7.50;3.78;;;;;;;41.89;20.28;101679.44;4417760;32;20072;-76
2021/07/18 10:51:18;;;;;;;8.75;3.85;;;;;;;42.62;19.73;101671.66;4416428;32;20414;-75
2021/07/18 10:53:44;;;;;;;9.45;3.55;;;;;;;42.77;19.77;101671.16;4416894;32;20022;-76
2021/07/18 10:56:10;;;;;;;5.60;3.55;;;;;;;42.41;20.04;101679.91;4417601;32;20064;-76
2021/07/18 11:01:31;;;;;;;11.05;4.00;;;;;;;44.14;18.55;101676.38;3981597;32;15022847;-76
2021/07/18 11:03:58;;;;;;;9.32;3.60;;;;;;;44.14;18.55;101676.38;4432223;32;20056;-77
2021/07/18 11:09:19;;;;;;;7.13;3.67;;;;;;;44.31;17.91;101655.06;4001545;31;15018393;-77
2021/07/18 11:11:55;;;;;;;8.27;3.58;;;;;;;44.31;17.91;101655.06;4464155;32;20068;-77
2021/07/18 11:14:27;;;;;;;10.60;3.85;;;;;;;42.97;19.44;101653.81;4466966;32;20440;-77
2021/07/18 11:16:57;;;;;;;9.43;3.72;;;;;;;43.11;19.23;101666.56;4462658;32;20473;-75
2021/07/18 11:22:56;;;;;;;12.15;3.65;;;;;;;42.76;19.83;101642.94;3986036;32;15022356;-77
2021/07/18 11:25:47;;;;;;;9.05;3.60;;;;;;;42.76;19.83;101642.94;4433814;32;20081;-76
2021/07/18 11:39:13;;;;;;;7.70;3.65;;;;;;;43.95;18.34;101647.09;3954926;32;15723643;-74
2021/07/18 11:41:40;;;;;;;9.85;3.60;;;;;;;43.95;18.34;101647.09;4431880;32;20069;-75
2021/07/18 11:44:06;;;;;;;10.85;3.90;;;;;;;43.40;18.96;101631.25;4435724;32;20085;-76
2021/07/18 11:46:37;;;;;;;6.55;3.72;;;;;;;43.88;18.38;101633.34;4436554;32;20715;-75